sensor_id;sensor_type;location;lat;lon;timestamp;P1;durP1;ratioP1;P2;durP2;ratioP2
3046;SDS011;1533;44.816;20.420;2022-07-03T00:01:36;6.53;;;5.27;;
3046;SDS011;1533;44.816;20.420;2022-07-03T00:04:02;5.80;;;4.43;;
3046;SDS011;1533;44.816;20.420;2022-07-03T00:06:27;6.70;;;4.80;;
3046;SDS011;1533;44.816;20.420;2022-07-03T00:08:55;5.77;;;5.17;;
3046;SDS011;1533;44.816;20.420;2022-07-03T00:11:21;7.30;;;4.70;;
3046;SDS011;1533;44.816;20.420;2022-07-03T00:13:48;6.57;;;5.00;;
3046;SDS011;1533;44.816;20.420;2022-07-03T00:16:14;6.70;;;5.27;;
3046;SDS011;1533;44.816;20.420;2022-07-03T00:18:39;6.83;;;5.23;;
3046;SDS011;1533;44.816;20.420;2022-07-03T00:21:06;7.70;;;4.70;;
3046;SDS011;1533;44.816;20.420;2022-07-03T00:23:37;7.80;;;5.90;;
3046;SDS011;1533;44.816;20.420;2022-07-03T00:26:05;7.50;;;5.53;;
3046;SDS011;1533;44.816;20.420;2022-07-03T00:28:31;5.43;;;4.93;;
3046;SDS011;1533;44.816;20.420;2022-07-03T00:30:57;6.07;;;5.00;;
3046;SDS011;1533;44.816;20.420;2022-07-03T00:33:23;7.57;;;5.10;;
3046;SDS011;1533;44.816;20.420;2022-07-03T00:35:55;6.60;;;4.73;;
3046;SDS011;1533;44.816;20.420;2022-07-03T00:38:23;5.20;;;4.30;;
3046;SDS011;1533;44.816;20.420;2022-07-03T00:40:49;5.23;;;4.73;;
3046;SDS011;1533;44.816;20.420;2022-07-03T00:43:15;6.80;;;5.40;;
3046;SDS011;1533;44.816;20.420;2022-07-03T00:45:42;9.53;;;4.53;;
3046;SDS011;1533;44.816;20.420;2022-07-03T00:48:11;8.70;;;5.10;;
3046;SDS011;1533;44.816;20.420;2022-07-03T00:50:38;5.00;;;4.60;;
3046;SDS011;1533;44.816;20.420;2022-07-03T00:53:10;10.03;;;5.37;;
3046;SDS011;1533;44.816;20.420;2022-07-03T00:55:36;6.30;;;4.77;;
3046;SDS011;1533;44.816;20.420;2022-07-03T00:58:07;8.03;;;5.30;;
3046;SDS011;1533;44.816;20.420;2022-07-03T01:00:32;6.27;;;5.47;;
3046;SDS011;1533;44.816;20.420;2022-07-03T01:03:02;10.50;;;5.23;;
3046;SDS011;1533;44.816;20.420;2022-07-03T01:18:52;7.63;;;4.70;;
3046;SDS011;1533;44.816;20.420;2022-07-03T01:27:04;5.97;;;4.90;;
3046;SDS011;1533;44.816;20.420;2022-07-03T01:29:35;6.97;;;4.90;;
3046;SDS011;1533;44.816;20.420;2022-07-03T01:32:05;7.30;;;4.73;;
3046;SDS011;1533;44.816;20.420;2022-07-03T01:34:33;6.47;;;5.07;;
3046;SDS011;1533;44.816;20.420;2022-07-03T01:36:59;10.70;;;4.83;;
3046;SDS011;1533;44.816;20.420;2022-07-03T01:39:26;5.30;;;4.80;;
3046;SDS011;1533;44.816;20.420;2022-07-03T01:41:52;6.40;;;4.80;;
3046;SDS011;1533;44.816;20.420;2022-07-03T01:44:18;6.90;;;4.90;;
3046;SDS011;1533;44.816;20.420;2022-07-03T01:46:45;5.97;;;4.70;;
3046;SDS011;1533;44.816;20.420;2022-07-03T01:49:12;5.93;;;5.20;;
3046;SDS011;1533;44.816;20.420;2022-07-03T01:51:39;4.93;;;4.43;;
3046;SDS011;1533;44.816;20.420;2022-07-03T01:54:06;10.17;;;5.77;;
3046;SDS011;1533;44.816;20.420;2022-07-03T01:56:35;6.03;;;4.07;;
3046;SDS011;1533;44.816;20.420;2022-07-03T01:59:01;4.60;;;4.20;;
3046;SDS011;1533;44.816;20.420;2022-07-03T02:01:37;5.80;;;4.80;;
3046;SDS011;1533;44.816;20.420;2022-07-03T02:06:40;5.90;;;4.07;;
3046;SDS011;1533;44.816;20.420;2022-07-03T02:09:08;7.70;;;4.63;;
3046;SDS011;1533;44.816;20.420;2022-07-03T02:11:36;6.13;;;4.90;;
3046;SDS011;1533;44.816;20.420;2022-07-03T02:19:59;6.70;;;5.00;;
3046;SDS011;1533;44.816;20.420;2022-07-03T02:22:27;7.70;;;5.10;;
3046;SDS011;1533;44.816;20.420;2022-07-03T02:25:02;9.33;;;4.80;;
3046;SDS011;1533;44.816;20.420;2022-07-03T02:27:30;5.63;;;4.73;;
3046;SDS011;1533;44.816;20.420;2022-07-03T02:30:05;6.93;;;4.90;;
3046;SDS011;1533;44.816;20.420;2022-07-03T02:32:36;10.03;;;4.87;;
3046;SDS011;1533;44.816;20.420;2022-07-03T02:35:09;8.27;;;5.97;;
3046;SDS011;1533;44.816;20.420;2022-07-03T02:37:41;5.63;;;5.03;;
3046;SDS011;1533;44.816;20.420;2022-07-03T02:43:24;7.70;;;5.27;;
3046;SDS011;1533;44.816;20.420;2022-07-03T02:52:33;8.80;;;5.40;;
3046;SDS011;1533;44.816;20.420;2022-07-03T02:54:57;8.10;;;5.30;;
3046;SDS011;1533;44.816;20.420;2022-07-03T02:57:40;6.80;;;5.40;;
3046;SDS011;1533;44.816;20.420;2022-07-03T03:00:10;8.00;;;6.00;;
3046;SDS011;1533;44.816;20.420;2022-07-03T03:10:16;7.00;;;5.77;;
3046;SDS011;1533;44.816;20.420;2022-07-03T03:12:43;9.33;;;5.70;;
3046;SDS011;1533;44.816;20.420;2022-07-03T03:15:12;6.43;;;5.50;;
3046;SDS011;1533;44.816;20.420;2022-07-03T03:17:47;6.07;;;5.40;;
3046;SDS011;1533;44.816;20.420;2022-07-03T03:20:16;5.70;;;5.10;;
3046;SDS011;1533;44.816;20.420;2022-07-03T03:25:46;7.43;;;5.10;;
3046;SDS011;1533;44.816;20.420;2022-07-03T03:28:12;6.87;;;5.20;;
3046;SDS011;1533;44.816;20.420;2022-07-03T03:30:38;9.07;;;5.80;;
3046;SDS011;1533;44.816;20.420;2022-07-03T03:33:07;6.40;;;4.97;;
3046;SDS011;1533;44.816;20.420;2022-07-03T03:35:35;6.90;;;5.43;;
3046;SDS011;1533;44.816;20.420;2022-07-03T03:38:01;9.77;;;6.47;;
3046;SDS011;1533;44.816;20.420;2022-07-03T03:40:27;6.87;;;5.83;;
3046;SDS011;1533;44.816;20.420;2022-07-03T03:42:52;8.90;;;6.20;;
3046;SDS011;1533;44.816;20.420;2022-07-03T03:45:18;6.70;;;5.90;;
3046;SDS011;1533;44.816;20.420;2022-07-03T03:47:44;10.80;;;6.50;;
3046;SDS011;1533;44.816;20.420;2022-07-03T03:50:09;10.23;;;6.00;;
3046;SDS011;1533;44.816;20.420;2022-07-03T03:52:35;6.23;;;5.63;;
3046;SDS011;1533;44.816;20.420;2022-07-03T03:55:00;10.03;;;6.67;;
3046;SDS011;1533;44.816;20.420;2022-07-03T03:57:26;6.40;;;5.70;;
3046;SDS011;1533;44.816;20.420;2022-07-03T03:59:51;9.40;;;6.00;;
3046;SDS011;1533;44.816;20.420;2022-07-03T04:02:17;8.93;;;6.40;;
3046;SDS011;1533;44.816;20.420;2022-07-03T04:04:43;8.10;;;6.20;;
3046;SDS011;1533;44.816;20.420;2022-07-03T04:07:09;8.30;;;5.63;;
3046;SDS011;1533;44.816;20.420;2022-07-03T04:09:35;6.80;;;5.57;;
3046;SDS011;1533;44.816;20.420;2022-07-03T04:12:01;7.37;;;6.00;;
3046;SDS011;1533;44.816;20.420;2022-07-03T04:14:27;8.60;;;6.87;;
3046;SDS011;1533;44.816;20.420;2022-07-03T04:16:52;9.80;;;6.93;;
3046;SDS011;1533;44.816;20.420;2022-07-03T04:19:18;9.13;;;6.50;;
3046;SDS011;1533;44.816;20.420;2022-07-03T04:21:43;10.43;;;6.70;;
3046;SDS011;1533;44.816;20.420;2022-07-03T04:24:09;8.27;;;6.30;;
3046;SDS011;1533;44.816;20.420;2022-07-03T04:26:34;9.57;;;6.43;;
3046;SDS011;1533;44.816;20.420;2022-07-03T04:29:00;8.53;;;7.00;;
3046;SDS011;1533;44.816;20.420;2022-07-03T04:31:25;8.70;;;7.13;;
3046;SDS011;1533;44.816;20.420;2022-07-03T04:33:51;10.43;;;7.03;;
3046;SDS011;1533;44.816;20.420;2022-07-03T04:36:16;7.30;;;6.60;;
3046;SDS011;1533;44.816;20.420;2022-07-03T04:38:42;9.20;;;7.00;;
3046;SDS011;1533;44.816;20.420;2022-07-03T04:41:08;7.03;;;6.30;;
3046;SDS011;1533;44.816;20.420;2022-07-03T04:43:34;9.47;;;6.80;;
3046;SDS011;1533;44.816;20.420;2022-07-03T04:45:59;10.23;;;7.80;;
3046;SDS011;1533;44.816;20.420;2022-07-03T04:48:27;9.00;;;6.30;;
3046;SDS011;1533;44.816;20.420;2022-07-03T04:50:53;7.27;;;6.47;;
3046;SDS011;1533;44.816;20.420;2022-07-03T04:53:18;7.70;;;5.90;;
3046;SDS011;1533;44.816;20.420;2022-07-03T04:55:45;7.80;;;6.83;;
3046;SDS011;1533;44.816;20.420;2022-07-03T04:58:10;8.57;;;6.20;;
3046;SDS011;1533;44.816;20.420;2022-07-03T05:00:36;7.90;;;6.20;;
3046;SDS011;1533;44.816;20.420;2022-07-03T05:03:01;6.50;;;5.73;;
3046;SDS011;1533;44.816;20.420;2022-07-03T05:05:27;10.00;;;6.50;;
3046;SDS011;1533;44.816;20.420;2022-07-03T05:07:52;7.30;;;6.20;;
3046;SDS011;1533;44.816;20.420;2022-07-03T05:10:18;10.00;;;6.37;;
3046;SDS011;1533;44.816;20.420;2022-07-03T05:12:43;10.73;;;5.63;;
3046;SDS011;1533;44.816;20.420;2022-07-03T05:15:09;6.63;;;5.80;;
3046;SDS011;1533;44.816;20.420;2022-07-03T05:17:35;8.23;;;6.50;;
3046;SDS011;1533;44.816;20.420;2022-07-03T05:20:00;7.93;;;6.37;;
3046;SDS011;1533;44.816;20.420;2022-07-03T05:22:45;6.97;;;5.50;;
3046;SDS011;1533;44.816;20.420;2022-07-03T05:25:10;8.43;;;5.30;;
3046;SDS011;1533;44.816;20.420;2022-07-03T05:27:36;12.20;;;5.67;;
3046;SDS011;1533;44.816;20.420;2022-07-03T05:30:02;6.73;;;6.03;;
3046;SDS011;1533;44.816;20.420;2022-07-03T05:32:28;7.13;;;6.43;;
3046;SDS011;1533;44.816;20.420;2022-07-03T05:34:54;11.67;;;6.50;;
3046;SDS011;1533;44.816;20.420;2022-07-03T05:37:19;7.80;;;5.80;;
3046;SDS011;1533;44.816;20.420;2022-07-03T05:39:44;6.90;;;6.20;;
3046;SDS011;1533;44.816;20.420;2022-07-03T05:42:10;10.37;;;6.17;;
3046;SDS011;1533;44.816;20.420;2022-07-03T05:44:35;9.77;;;6.80;;
3046;SDS011;1533;44.816;20.420;2022-07-03T05:47:01;13.97;;;6.10;;
3046;SDS011;1533;44.816;20.420;2022-07-03T05:49:26;10.03;;;6.40;;
3046;SDS011;1533;44.816;20.420;2022-07-03T05:51:52;9.10;;;6.70;;
3046;SDS011;1533;44.816;20.420;2022-07-03T05:54:17;11.83;;;6.07;;
3046;SDS011;1533;44.816;20.420;2022-07-03T05:56:43;9.10;;;6.00;;
3046;SDS011;1533;44.816;20.420;2022-07-03T05:59:08;6.43;;;5.60;;
3046;SDS011;1533;44.816;20.420;2022-07-03T06:01:34;6.50;;;5.73;;
3046;SDS011;1533;44.816;20.420;2022-07-03T06:03:59;7.20;;;6.13;;
3046;SDS011;1533;44.816;20.420;2022-07-03T06:06:25;6.60;;;5.70;;
3046;SDS011;1533;44.816;20.420;2022-07-03T06:08:50;6.87;;;6.00;;
3046;SDS011;1533;44.816;20.420;2022-07-03T06:11:15;6.80;;;6.20;;
3046;SDS011;1533;44.816;20.420;2022-07-03T06:13:41;7.80;;;6.43;;
3046;SDS011;1533;44.816;20.420;2022-07-03T06:16:06;5.60;;;5.10;;
3046;SDS011;1533;44.816;20.420;2022-07-03T06:18:32;6.53;;;5.60;;
3046;SDS011;1533;44.816;20.420;2022-07-03T06:20:57;8.03;;;6.17;;
3046;SDS011;1533;44.816;20.420;2022-07-03T06:23:23;11.20;;;5.80;;
3046;SDS011;1533;44.816;20.420;2022-07-03T06:25:48;6.70;;;6.00;;
3046;SDS011;1533;44.816;20.420;2022-07-03T06:28:14;9.37;;;6.40;;
3046;SDS011;1533;44.816;20.420;2022-07-03T06:30:39;8.90;;;6.17;;
3046;SDS011;1533;44.816;20.420;2022-07-03T06:33:05;10.73;;;6.20;;
3046;SDS011;1533;44.816;20.420;2022-07-03T06:35:30;6.87;;;6.17;;
3046;SDS011;1533;44.816;20.420;2022-07-03T06:38:00;6.53;;;5.93;;
3046;SDS011;1533;44.816;20.420;2022-07-03T06:40:26;7.53;;;5.90;;
3046;SDS011;1533;44.816;20.420;2022-07-03T06:42:51;7.07;;;5.90;;
3046;SDS011;1533;44.816;20.420;2022-07-03T06:45:17;9.90;;;5.90;;
3046;SDS011;1533;44.816;20.420;2022-07-03T06:47:42;7.97;;;5.83;;
3046;SDS011;1533;44.816;20.420;2022-07-03T06:50:08;7.20;;;6.50;;
3046;SDS011;1533;44.816;20.420;2022-07-03T06:52:37;7.47;;;6.37;;
3046;SDS011;1533;44.816;20.420;2022-07-03T06:55:05;14.43;;;6.40;;
3046;SDS011;1533;44.816;20.420;2022-07-03T06:57:31;6.70;;;5.93;;
3046;SDS011;1533;44.816;20.420;2022-07-03T06:59:57;10.83;;;6.37;;
3046;SDS011;1533;44.816;20.420;2022-07-03T07:02:22;6.63;;;6.00;;
3046;SDS011;1533;44.816;20.420;2022-07-03T07:04:47;6.67;;;5.77;;
3046;SDS011;1533;44.816;20.420;2022-07-03T07:07:13;7.73;;;5.57;;
3046;SDS011;1533;44.816;20.420;2022-07-03T07:09:39;8.60;;;6.40;;
3046;SDS011;1533;44.816;20.420;2022-07-03T07:12:04;7.73;;;6.33;;
3046;SDS011;1533;44.816;20.420;2022-07-03T07:14:33;10.33;;;7.60;;
3046;SDS011;1533;44.816;20.420;2022-07-03T07:16:59;7.70;;;5.80;;
3046;SDS011;1533;44.816;20.420;2022-07-03T07:19:24;10.27;;;6.00;;
3046;SDS011;1533;44.816;20.420;2022-07-03T07:21:50;9.63;;;6.30;;
3046;SDS011;1533;44.816;20.420;2022-07-03T07:24:15;6.70;;;6.03;;
3046;SDS011;1533;44.816;20.420;2022-07-03T07:26:41;7.40;;;5.83;;
3046;SDS011;1533;44.816;20.420;2022-07-03T07:29:07;16.03;;;6.90;;
3046;SDS011;1533;44.816;20.420;2022-07-03T07:31:35;8.33;;;6.27;;
3046;SDS011;1533;44.816;20.420;2022-07-03T07:34:00;11.80;;;6.20;;
3046;SDS011;1533;44.816;20.420;2022-07-03T07:36:29;6.63;;;5.90;;
3046;SDS011;1533;44.816;20.420;2022-07-03T07:38:55;12.07;;;6.17;;
3046;SDS011;1533;44.816;20.420;2022-07-03T07:41:20;10.20;;;6.90;;
3046;SDS011;1533;44.816;20.420;2022-07-03T07:43:46;7.93;;;6.27;;
3046;SDS011;1533;44.816;20.420;2022-07-03T07:46:14;7.50;;;6.10;;
3046;SDS011;1533;44.816;20.420;2022-07-03T07:48:47;8.90;;;6.50;;
3046;SDS011;1533;44.816;20.420;2022-07-03T07:51:12;8.30;;;6.80;;
3046;SDS011;1533;44.816;20.420;2022-07-03T07:53:38;8.13;;;6.33;;
3046;SDS011;1533;44.816;20.420;2022-07-03T07:56:03;13.13;;;7.03;;
3046;SDS011;1533;44.816;20.420;2022-07-03T07:58:29;10.80;;;6.43;;
3046;SDS011;1533;44.816;20.420;2022-07-03T08:00:54;9.13;;;5.97;;
3046;SDS011;1533;44.816;20.420;2022-07-03T08:03:38;12.43;;;6.33;;
3046;SDS011;1533;44.816;20.420;2022-07-03T08:06:22;6.50;;;5.90;;
3046;SDS011;1533;44.816;20.420;2022-07-03T08:08:48;9.13;;;6.40;;
3046;SDS011;1533;44.816;20.420;2022-07-03T08:11:13;8.40;;;7.30;;
3046;SDS011;1533;44.816;20.420;2022-07-03T08:13:41;7.40;;;6.53;;
3046;SDS011;1533;44.816;20.420;2022-07-03T08:16:11;7.07;;;6.27;;
3046;SDS011;1533;44.816;20.420;2022-07-03T08:18:40;6.83;;;6.13;;
3046;SDS011;1533;44.816;20.420;2022-07-03T08:21:05;9.63;;;6.90;;
3046;SDS011;1533;44.816;20.420;2022-07-03T08:23:31;9.07;;;6.50;;
3046;SDS011;1533;44.816;20.420;2022-07-03T08:25:56;6.93;;;5.57;;
3046;SDS011;1533;44.816;20.420;2022-07-03T08:28:22;9.60;;;7.10;;
3046;SDS011;1533;44.816;20.420;2022-07-03T08:30:47;10.97;;;6.40;;
3046;SDS011;1533;44.816;20.420;2022-07-03T08:33:14;11.33;;;6.27;;
3046;SDS011;1533;44.816;20.420;2022-07-03T08:35:39;13.30;;;7.67;;
3046;SDS011;1533;44.816;20.420;2022-07-03T08:38:05;9.00;;;7.27;;
3046;SDS011;1533;44.816;20.420;2022-07-03T08:40:30;13.70;;;7.03;;
3046;SDS011;1533;44.816;20.420;2022-07-03T08:42:57;9.63;;;6.57;;
3046;SDS011;1533;44.816;20.420;2022-07-03T08:45:24;11.83;;;6.73;;
3046;SDS011;1533;44.816;20.420;2022-07-03T08:47:51;7.43;;;6.63;;
3046;SDS011;1533;44.816;20.420;2022-07-03T08:50:19;5.80;;;5.30;;
3046;SDS011;1533;44.816;20.420;2022-07-03T08:52:45;13.10;;;6.97;;
3046;SDS011;1533;44.816;20.420;2022-07-03T08:55:11;9.03;;;6.70;;
3046;SDS011;1533;44.816;20.420;2022-07-03T08:57:39;8.20;;;6.40;;
3046;SDS011;1533;44.816;20.420;2022-07-03T09:00:12;6.87;;;5.97;;
3046;SDS011;1533;44.816;20.420;2022-07-03T09:02:40;6.63;;;5.90;;
3046;SDS011;1533;44.816;20.420;2022-07-03T09:05:07;13.23;;;6.40;;
3046;SDS011;1533;44.816;20.420;2022-07-03T09:07:34;8.73;;;7.20;;
3046;SDS011;1533;44.816;20.420;2022-07-03T09:10:08;11.20;;;6.97;;
3046;SDS011;1533;44.816;20.420;2022-07-03T09:12:54;6.90;;;6.20;;
3046;SDS011;1533;44.816;20.420;2022-07-03T09:15:20;7.13;;;6.47;;
3046;SDS011;1533;44.816;20.420;2022-07-03T09:18:03;8.80;;;6.33;;
3046;SDS011;1533;44.816;20.420;2022-07-03T09:20:36;18.83;;;7.10;;
3046;SDS011;1533;44.816;20.420;2022-07-03T09:23:10;7.63;;;6.70;;
3046;SDS011;1533;44.816;20.420;2022-07-03T09:25:50;9.30;;;7.13;;
3046;SDS011;1533;44.816;20.420;2022-07-03T09:28:24;8.03;;;6.33;;
3046;SDS011;1533;44.816;20.420;2022-07-03T09:31:14;11.17;;;7.10;;
3046;SDS011;1533;44.816;20.420;2022-07-03T09:33:48;11.87;;;6.67;;
3046;SDS011;1533;44.816;20.420;2022-07-03T09:36:16;9.60;;;6.80;;
3046;SDS011;1533;44.816;20.420;2022-07-03T09:38:44;7.47;;;6.67;;
3046;SDS011;1533;44.816;20.420;2022-07-03T09:41:10;7.67;;;6.10;;
3046;SDS011;1533;44.816;20.420;2022-07-03T09:43:36;7.03;;;6.33;;
3046;SDS011;1533;44.816;20.420;2022-07-03T09:46:08;8.20;;;6.77;;
3046;SDS011;1533;44.816;20.420;2022-07-03T09:48:40;7.07;;;6.47;;
3046;SDS011;1533;44.816;20.420;2022-07-03T09:54:03;8.77;;;6.13;;
3046;SDS011;1533;44.816;20.420;2022-07-03T09:56:33;8.73;;;6.63;;
3046;SDS011;1533;44.816;20.420;2022-07-03T10:01:45;15.97;;;7.00;;
3046;SDS011;1533;44.816;20.420;2022-07-03T10:09:27;9.30;;;6.00;;
3046;SDS011;1533;44.816;20.420;2022-07-03T10:11:57;8.23;;;6.20;;
3046;SDS011;1533;44.816;20.420;2022-07-03T10:14:26;9.80;;;5.20;;
3046;SDS011;1533;44.816;20.420;2022-07-03T10:16:53;6.20;;;5.20;;
3046;SDS011;1533;44.816;20.420;2022-07-03T10:19:21;5.70;;;5.10;;
3046;SDS011;1533;44.816;20.420;2022-07-03T10:21:51;9.80;;;6.23;;
3046;SDS011;1533;44.816;20.420;2022-07-03T10:24:23;6.70;;;5.70;;
3046;SDS011;1533;44.816;20.420;2022-07-03T10:26:54;9.23;;;5.80;;
3046;SDS011;1533;44.816;20.420;2022-07-03T10:29:21;8.03;;;6.30;;
3046;SDS011;1533;44.816;20.420;2022-07-03T10:31:47;9.50;;;6.07;;
3046;SDS011;1533;44.816;20.420;2022-07-03T10:34:20;7.63;;;6.03;;
3046;SDS011;1533;44.816;20.420;2022-07-03T10:36:47;7.10;;;5.60;;
3046;SDS011;1533;44.816;20.420;2022-07-03T10:39:18;5.47;;;4.97;;
3046;SDS011;1533;44.816;20.420;2022-07-03T10:41:58;7.37;;;5.63;;
3046;SDS011;1533;44.816;20.420;2022-07-03T10:47:36;6.60;;;5.53;;
3046;SDS011;1533;44.816;20.420;2022-07-03T10:50:10;6.67;;;5.67;;
3046;SDS011;1533;44.816;20.420;2022-07-03T10:52:38;6.53;;;5.57;;
3046;SDS011;1533;44.816;20.420;2022-07-03T10:55:04;6.20;;;5.20;;
3046;SDS011;1533;44.816;20.420;2022-07-03T10:57:31;9.30;;;6.13;;
3046;SDS011;1533;44.816;20.420;2022-07-03T11:00:07;8.47;;;6.73;;
3046;SDS011;1533;44.816;20.420;2022-07-03T11:02:40;6.60;;;6.00;;
3046;SDS011;1533;44.816;20.420;2022-07-03T11:08:03;12.33;;;6.90;;
3046;SDS011;1533;44.816;20.420;2022-07-03T11:10:30;8.00;;;5.97;;
3046;SDS011;1533;44.816;20.420;2022-07-03T11:15:33;9.00;;;6.33;;
3046;SDS011;1533;44.816;20.420;2022-07-03T11:20:34;6.47;;;5.87;;
3046;SDS011;1533;44.816;20.420;2022-07-03T11:25:39;7.00;;;6.10;;
3046;SDS011;1533;44.816;20.420;2022-07-03T11:28:05;7.07;;;6.47;;
3046;SDS011;1533;44.816;20.420;2022-07-03T11:30:31;9.17;;;6.97;;
3046;SDS011;1533;44.816;20.420;2022-07-03T11:32:57;14.37;;;6.53;;
3046;SDS011;1533;44.816;20.420;2022-07-03T11:38:26;7.67;;;6.87;;
3046;SDS011;1533;44.816;20.420;2022-07-03T11:40:53;10.40;;;6.93;;
3046;SDS011;1533;44.816;20.420;2022-07-03T11:43:20;6.97;;;6.27;;
3046;SDS011;1533;44.816;20.420;2022-07-03T11:45:46;7.80;;;6.77;;
3046;SDS011;1533;44.816;20.420;2022-07-03T11:48:13;7.40;;;6.60;;
3046;SDS011;1533;44.816;20.420;2022-07-03T11:50:50;10.43;;;6.20;;
3046;SDS011;1533;44.816;20.420;2022-07-03T11:58:14;12.83;;;8.13;;
3046;SDS011;1533;44.816;20.420;2022-07-03T12:00:42;23.17;;;9.90;;
3046;SDS011;1533;44.816;20.420;2022-07-03T12:03:14;13.80;;;8.17;;
3046;SDS011;1533;44.816;20.420;2022-07-03T12:05:49;9.83;;;7.60;;
3046;SDS011;1533;44.816;20.420;2022-07-03T12:10:50;11.40;;;8.47;;
3046;SDS011;1533;44.816;20.420;2022-07-03T12:13:19;10.47;;;8.70;;
3046;SDS011;1533;44.816;20.420;2022-07-03T12:15:45;11.43;;;8.33;;
3046;SDS011;1533;44.816;20.420;2022-07-03T12:18:11;9.23;;;8.20;;
3046;SDS011;1533;44.816;20.420;2022-07-03T12:20:37;8.57;;;7.70;;
3046;SDS011;1533;44.816;20.420;2022-07-03T12:23:02;9.07;;;7.63;;
3046;SDS011;1533;44.816;20.420;2022-07-03T12:25:31;10.40;;;8.53;;
3046;SDS011;1533;44.816;20.420;2022-07-03T12:27:56;12.23;;;8.20;;
3046;SDS011;1533;44.816;20.420;2022-07-03T12:30:22;10.70;;;8.03;;
3046;SDS011;1533;44.816;20.420;2022-07-03T12:32:53;10.70;;;9.43;;
3046;SDS011;1533;44.816;20.420;2022-07-03T12:35:25;11.27;;;8.77;;
3046;SDS011;1533;44.816;20.420;2022-07-03T12:37:54;10.23;;;8.27;;
3046;SDS011;1533;44.816;20.420;2022-07-03T12:40:20;11.00;;;9.17;;
3046;SDS011;1533;44.816;20.420;2022-07-03T12:42:47;10.27;;;9.03;;
3046;SDS011;1533;44.816;20.420;2022-07-03T12:45:17;8.63;;;7.70;;
3046;SDS011;1533;44.816;20.420;2022-07-03T12:47:45;22.83;;;10.97;;
3046;SDS011;1533;44.816;20.420;2022-07-03T12:50:11;15.43;;;8.47;;
3046;SDS011;1533;44.816;20.420;2022-07-03T12:52:49;14.93;;;9.37;;
3046;SDS011;1533;44.816;20.420;2022-07-03T12:55:29;10.03;;;9.00;;
3046;SDS011;1533;44.816;20.420;2022-07-03T13:00:55;12.77;;;9.40;;
3046;SDS011;1533;44.816;20.420;2022-07-03T13:03:30;9.63;;;8.73;;
3046;SDS011;1533;44.816;20.420;2022-07-03T13:05:57;10.77;;;9.57;;
3046;SDS011;1533;44.816;20.420;2022-07-03T13:08:22;10.97;;;9.87;;
3046;SDS011;1533;44.816;20.420;2022-07-03T13:10:55;9.23;;;8.33;;
3046;SDS011;1533;44.816;20.420;2022-07-03T13:13:24;12.00;;;10.77;;
3046;SDS011;1533;44.816;20.420;2022-07-03T13:15:51;12.13;;;10.80;;
3046;SDS011;1533;44.816;20.420;2022-07-03T13:18:20;10.70;;;9.30;;
3046;SDS011;1533;44.816;20.420;2022-07-03T13:20:46;11.07;;;9.63;;
3046;SDS011;1533;44.816;20.420;2022-07-03T13:28:50;10.57;;;9.50;;
3046;SDS011;1533;44.816;20.420;2022-07-03T13:31:45;12.87;;;9.83;;
3046;SDS011;1533;44.816;20.420;2022-07-03T13:34:16;9.27;;;8.47;;
3046;SDS011;1533;44.816;20.420;2022-07-03T13:36:44;11.80;;;9.63;;
3046;SDS011;1533;44.816;20.420;2022-07-03T13:39:14;14.10;;;9.33;;
3046;SDS011;1533;44.816;20.420;2022-07-03T13:41:40;11.53;;;9.90;;
3046;SDS011;1533;44.816;20.420;2022-07-03T13:44:13;15.60;;;9.17;;
3046;SDS011;1533;44.816;20.420;2022-07-03T13:46:46;11.30;;;9.87;;
3046;SDS011;1533;44.816;20.420;2022-07-03T13:49:12;11.83;;;9.03;;
3046;SDS011;1533;44.816;20.420;2022-07-03T13:51:38;10.20;;;9.30;;
3046;SDS011;1533;44.816;20.420;2022-07-03T13:54:03;14.07;;;9.50;;
3046;SDS011;1533;44.816;20.420;2022-07-03T13:56:29;16.07;;;10.53;;
3046;SDS011;1533;44.816;20.420;2022-07-03T13:58:59;12.07;;;9.00;;
3046;SDS011;1533;44.816;20.420;2022-07-03T14:01:33;11.33;;;9.73;;
3046;SDS011;1533;44.816;20.420;2022-07-03T14:03:59;11.30;;;9.03;;
3046;SDS011;1533;44.816;20.420;2022-07-03T14:06:24;10.67;;;8.80;;
3046;SDS011;1533;44.816;20.420;2022-07-03T14:08:51;9.80;;;8.90;;
3046;SDS011;1533;44.816;20.420;2022-07-03T14:11:16;11.63;;;10.43;;
3046;SDS011;1533;44.816;20.420;2022-07-03T14:13:42;11.00;;;9.30;;
3046;SDS011;1533;44.816;20.420;2022-07-03T14:16:07;10.23;;;9.13;;
3046;SDS011;1533;44.816;20.420;2022-07-03T14:18:33;10.73;;;9.10;;
3046;SDS011;1533;44.816;20.420;2022-07-03T14:20:58;10.43;;;9.43;;
3046;SDS011;1533;44.816;20.420;2022-07-03T14:23:24;10.83;;;9.53;;
3046;SDS011;1533;44.816;20.420;2022-07-03T14:25:51;10.23;;;9.33;;
3046;SDS011;1533;44.816;20.420;2022-07-03T14:28:16;12.50;;;9.33;;
3046;SDS011;1533;44.816;20.420;2022-07-03T14:31:00;12.90;;;9.50;;
3046;SDS011;1533;44.816;20.420;2022-07-03T14:34:03;11.03;;;9.30;;
3046;SDS011;1533;44.816;20.420;2022-07-03T14:36:29;10.30;;;9.40;;
3046;SDS011;1533;44.816;20.420;2022-07-03T14:38:56;14.80;;;9.30;;
3046;SDS011;1533;44.816;20.420;2022-07-03T14:41:21;10.27;;;9.27;;
3046;SDS011;1533;44.816;20.420;2022-07-03T14:43:47;12.83;;;11.07;;
3046;SDS011;1533;44.816;20.420;2022-07-03T14:46:12;11.73;;;10.73;;
3046;SDS011;1533;44.816;20.420;2022-07-03T14:48:38;10.77;;;9.80;;
3046;SDS011;1533;44.816;20.420;2022-07-03T14:51:03;11.70;;;10.60;;
3046;SDS011;1533;44.816;20.420;2022-07-03T14:53:29;11.77;;;10.57;;
3046;SDS011;1533;44.816;20.420;2022-07-03T14:55:54;12.53;;;10.40;;
3046;SDS011;1533;44.816;20.420;2022-07-03T14:58:23;12.53;;;11.20;;
3046;SDS011;1533;44.816;20.420;2022-07-03T15:00:55;11.60;;;10.40;;
3046;SDS011;1533;44.816;20.420;2022-07-03T15:05:50;11.93;;;10.47;;
3046;SDS011;1533;44.816;20.420;2022-07-03T15:11:19;10.70;;;9.80;;
3046;SDS011;1533;44.816;20.420;2022-07-03T15:14:05;16.77;;;11.27;;
3046;SDS011;1533;44.816;20.420;2022-07-03T15:16:32;10.80;;;9.90;;
3046;SDS011;1533;44.816;20.420;2022-07-03T15:18:59;12.43;;;11.20;;
3046;SDS011;1533;44.816;20.420;2022-07-03T15:21:26;12.87;;;9.23;;
3046;SDS011;1533;44.816;20.420;2022-07-03T15:24:00;13.30;;;9.67;;
3046;SDS011;1533;44.816;20.420;2022-07-03T15:26:28;12.37;;;9.97;;
3046;SDS011;1533;44.816;20.420;2022-07-03T15:28:55;10.70;;;9.63;;
3046;SDS011;1533;44.816;20.420;2022-07-03T15:31:23;11.77;;;9.57;;
3046;SDS011;1533;44.816;20.420;2022-07-03T15:33:49;10.90;;;9.70;;
3046;SDS011;1533;44.816;20.420;2022-07-03T15:36:17;11.00;;;9.90;;
3046;SDS011;1533;44.816;20.420;2022-07-03T15:38:53;12.03;;;10.70;;
3046;SDS011;1533;44.816;20.420;2022-07-03T15:44:47;12.23;;;10.20;;
3046;SDS011;1533;44.816;20.420;2022-07-03T15:50:21;10.80;;;9.80;;
3046;SDS011;1533;44.816;20.420;2022-07-03T15:53:03;17.23;;;9.47;;
3046;SDS011;1533;44.816;20.420;2022-07-03T15:55:33;11.83;;;9.20;;
3046;SDS011;1533;44.816;20.420;2022-07-03T15:58:04;13.40;;;10.70;;
3046;SDS011;1533;44.816;20.420;2022-07-03T16:00:39;11.00;;;10.00;;
3046;SDS011;1533;44.816;20.420;2022-07-03T16:05:41;14.63;;;9.00;;
3046;SDS011;1533;44.816;20.420;2022-07-03T16:08:09;10.27;;;9.37;;
3046;SDS011;1533;44.816;20.420;2022-07-03T16:10:40;14.40;;;11.43;;
3046;SDS011;1533;44.816;20.420;2022-07-03T16:13:25;11.83;;;10.10;;
3046;SDS011;1533;44.816;20.420;2022-07-03T16:16:20;11.07;;;9.97;;
3046;SDS011;1533;44.816;20.420;2022-07-03T16:19:09;16.43;;;9.90;;
3046;SDS011;1533;44.816;20.420;2022-07-03T16:32:10;11.73;;;9.50;;
3046;SDS011;1533;44.816;20.420;2022-07-03T16:34:59;14.50;;;9.93;;
3046;SDS011;1533;44.816;20.420;2022-07-03T16:38:10;11.07;;;10.07;;
3046;SDS011;1533;44.816;20.420;2022-07-03T16:40:34;13.43;;;9.93;;
3046;SDS011;1533;44.816;20.420;2022-07-03T16:43:04;9.80;;;9.00;;
3046;SDS011;1533;44.816;20.420;2022-07-03T16:45:32;10.57;;;9.63;;
3046;SDS011;1533;44.816;20.420;2022-07-03T16:48:00;10.30;;;9.30;;
3046;SDS011;1533;44.816;20.420;2022-07-03T16:50:34;12.47;;;9.40;;
3046;SDS011;1533;44.816;20.420;2022-07-03T16:53:00;13.63;;;9.40;;
3046;SDS011;1533;44.816;20.420;2022-07-03T16:55:26;11.03;;;9.93;;
3046;SDS011;1533;44.816;20.420;2022-07-03T16:57:55;9.93;;;9.03;;
3046;SDS011;1533;44.816;20.420;2022-07-03T17:00:22;11.03;;;9.93;;